sensor_id;sensor_type;location;lat;lon;timestamp;pressure;altitude;pressure_sealevel;temperature;humidity
60061;BME280;45933;51.336;12.612;2023-01-29T00:01:16;101132.00;;;-0.07;55.83
60061;BME280;45933;51.336;12.612;2023-01-29T00:03:42;101137.00;;;-0.10;56.32
60061;BME280;45933;51.336;12.612;2023-01-29T00:06:25;101136.25;;;-0.07;56.37
60061;BME280;45933;51.336;12.612;2023-01-29T00:08:51;101136.72;;;-0.14;56.63
60061;BME280;45933;51.336;12.612;2023-01-29T00:11:16;101133.91;;;-0.19;56.48
60061;BME280;45933;51.336;12.612;2023-01-29T00:13:42;101126.16;;;-0.20;56.54
60061;BME280;45933;51.336;12.612;2023-01-29T00:16:08;101120.84;;;-0.23;56.83
60061;BME280;45933;51.336;12.612;2023-01-29T00:18:38;101124.28;;;-0.23;56.57
60061;BME280;45933;51.336;12.612;2023-01-29T00:21:14;101127.47;;;-0.27;56.77
60061;BME280;45933;51.336;12.612;2023-01-29T00:23:52;101122.34;;;-0.27;56.93
60061;BME280;45933;51.336;12.612;2023-01-29T00:26:19;101118.94;;;-0.42;57.05
60061;BME280;45933;51.336;12.612;2023-01-29T00:28:45;101119.31;;;-0.36;57.09
60061;BME280;45933;51.336;12.612;2023-01-29T00:31:13;101119.31;;;-0.36;57.16
60061;BME280;45933;51.336;12.612;2023-01-29T00:33:42;101125.75;;;-0.43;56.82
60061;BME280;45933;51.336;12.612;2023-01-29T00:36:18;101110.56;;;-0.40;57.42
60061;BME280;45933;51.336;12.612;2023-01-29T00:38:44;101113.94;;;-0.41;56.87
60061;BME280;45933;51.336;12.612;2023-01-29T00:41:19;101110.56;;;-0.40;56.69
60061;BME280;45933;51.336;12.612;2023-01-29T00:44:04;101116.66;;;-0.38;56.95
60061;BME280;45933;51.336;12.612;2023-01-29T00:46:48;101117.44;;;-0.39;57.51
60061;BME280;45933;51.336;12.612;2023-01-29T00:49:15;101119.06;;;-0.41;57.26
60061;BME280;45933;51.336;12.612;2023-01-29T00:51:40;101116.31;;;-0.44;57.15
60061;BME280;45933;51.336;12.612;2023-01-29T00:54:06;101119.59;;;-0.46;57.83
60061;BME280;45933;51.336;12.612;2023-01-29T00:56:36;101112.06;;;-0.43;57.44
60061;BME280;45933;51.336;12.612;2023-01-29T00:59:02;101107.59;;;-0.47;57.40
60061;BME280;45933;51.336;12.612;2023-01-29T01:01:27;101110.69;;;-0.53;58.09
60061;BME280;45933;51.336;12.612;2023-01-29T01:04:11;101100.53;;;-0.51;57.99
60061;BME280;45933;51.336;12.612;2023-01-29T01:06:39;101101.41;;;-0.51;57.63
60061;BME280;45933;51.336;12.612;2023-01-29T01:09:05;101094.44;;;-0.54;58.06
60061;BME280;45933;51.336;12.612;2023-01-29T01:11:50;101098.69;;;-0.54;57.58
60061;BME280;45933;51.336;12.612;2023-01-29T01:14:24;101101.09;;;-0.57;57.79
60061;BME280;45933;51.336;12.612;2023-01-29T01:16:49;101099.22;;;-0.60;58.01
60061;BME280;45933;51.336;12.612;2023-01-29T01:19:18;101097.53;;;-0.59;57.74
60061;BME280;45933;51.336;12.612;2023-01-29T01:21:46;101099.94;;;-0.62;57.76
60061;BME280;45933;51.336;12.612;2023-01-29T01:24:12;101105.69;;;-0.66;57.90
60061;BME280;45933;51.336;12.612;2023-01-29T01:26:38;101105.50;;;-0.69;58.22
60061;BME280;45933;51.336;12.612;2023-01-29T01:29:03;101094.31;;;-0.71;58.06
60061;BME280;45933;51.336;12.612;2023-01-29T01:31:29;101085.81;;;-0.70;57.91
60061;BME280;45933;51.336;12.612;2023-01-29T01:33:54;101081.50;;;-0.71;57.83
60061;BME280;45933;51.336;12.612;2023-01-29T01:36:20;101077.19;;;-0.72;58.20
60061;BME280;45933;51.336;12.612;2023-01-29T01:38:46;101075.31;;;-0.75;57.79
60061;BME280;45933;51.336;12.612;2023-01-29T01:41:13;101080.38;;;-0.76;57.98
60061;BME280;45933;51.336;12.612;2023-01-29T01:43:52;101067.56;;;-0.76;57.60
60061;BME280;45933;51.336;12.612;2023-01-29T01:46:19;101060.91;;;-0.89;58.12
60061;BME280;45933;51.336;12.612;2023-01-29T01:48:48;101062.91;;;-0.84;58.38
60061;BME280;45933;51.336;12.612;2023-01-29T01:51:23;101056.81;;;-0.86;58.21
60061;BME280;45933;51.336;12.612;2023-01-29T01:53:55;101065.75;;;-0.94;58.97
60061;BME280;45933;51.336;12.612;2023-01-29T01:56:29;101056.66;;;-0.89;58.53
60061;BME280;45933;51.336;12.612;2023-01-29T01:59:05;101062.31;;;-0.94;58.51
60061;BME280;45933;51.336;12.612;2023-01-29T02:01:32;101071.69;;;-0.95;58.08
60061;BME280;45933;51.336;12.612;2023-01-29T02:04:03;101074.31;;;-0.93;58.42
60061;BME280;45933;51.336;12.612;2023-01-29T02:06:50;101065.75;;;-0.94;58.43
60061;BME280;45933;51.336;12.612;2023-01-29T02:09:42;101068.84;;;-0.99;58.73
60061;BME280;45933;51.336;12.612;2023-01-29T02:12:12;101061.25;;;-0.98;59.07
60061;BME280;45933;51.336;12.612;2023-01-29T02:14:40;101069.81;;;-0.97;58.96
60061;BME280;45933;51.336;12.612;2023-01-29T02:17:12;101079.25;;;-0.96;58.57
60061;BME280;45933;51.336;12.612;2023-01-29T02:22:23;101070.44;;;-1.01;59.06
60061;BME280;45933;51.336;12.612;2023-01-29T02:30:52;101082.97;;;-1.06;59.32
60061;BME280;45933;51.336;12.612;2023-01-29T02:36:28;101080.41;;;-1.06;59.06
60061;BME280;45933;51.336;12.612;2023-01-29T02:39:32;101077.75;;;-1.08;58.85
60061;BME280;45933;51.336;12.612;2023-01-29T02:42:14;101079.09;;;-1.14;59.53
60061;BME280;45933;51.336;12.612;2023-01-29T02:50:33;101085.03;;;-1.15;59.67
60061;BME280;45933;51.336;12.612;2023-01-29T02:53:04;101084.91;;;-1.17;59.82
60061;BME280;45933;51.336;12.612;2023-01-29T02:55:44;101091.81;;;-1.16;59.79
60061;BME280;45933;51.336;12.612;2023-01-29T02:58:16;101084.91;;;-1.17;59.78
60061;BME280;45933;51.336;12.612;2023-01-29T03:00:46;101079.44;;;-1.23;60.13
60061;BME280;45933;51.336;12.612;2023-01-29T03:03:17;101073.00;;;-1.16;59.80
60061;BME280;45933;51.336;12.612;2023-01-29T03:08:43;101060.94;;;-1.19;60.41
60061;BME280;45933;51.336;12.612;2023-01-29T03:11:15;101066.91;;;-1.18;60.28
60061;BME280;45933;51.336;12.612;2023-01-29T03:13:54;101059.31;;;-1.17;60.09
60061;BME280;45933;51.336;12.612;2023-01-29T03:16:33;101045.75;;;-1.16;60.32
60061;BME280;45933;51.336;12.612;2023-01-29T03:19:05;101055.00;;;-1.18;60.31
60061;BME280;45933;51.336;12.612;2023-01-29T03:21:37;101055.88;;;-1.17;60.31
60061;BME280;45933;51.336;12.612;2023-01-29T03:24:43;101053.50;;;-1.14;59.53
60061;BME280;45933;51.336;12.612;2023-01-29T03:27:46;101057.75;;;-1.15;60.31
60061;BME280;45933;51.336;12.612;2023-01-29T03:30:37;101067.66;;;-1.21;60.07
60061;BME280;45933;51.336;12.612;2023-01-29T03:33:25;101072.38;;;-1.27;60.75
60061;BME280;45933;51.336;12.612;2023-01-29T03:36:05;101070.19;;;-1.21;60.35
60061;BME280;45933;51.336;12.612;2023-01-29T03:38:32;101070.00;;;-1.24;60.85
60061;BME280;45933;51.336;12.612;2023-01-29T03:41:02;101062.41;;;-1.22;60.56
60061;BME280;45933;51.336;12.612;2023-01-29T03:43:35;101062.25;;;-1.25;60.73
60061;BME280;45933;51.336;12.612;2023-01-29T03:46:20;101063.47;;;-1.19;60.73
60061;BME280;45933;51.336;12.612;2023-01-29T03:49:11;101059.06;;;-1.21;60.80
60061;BME280;45933;51.336;12.612;2023-01-29T03:51:57;101055.72;;;-1.20;60.44
60061;BME280;45933;51.336;12.612;2023-01-29T03:59:56;101042.28;;;-1.16;60.96
60061;BME280;45933;51.336;12.612;2023-01-29T04:02:30;101037.81;;;-1.20;60.88
60061;BME280;45933;51.336;12.612;2023-01-29T04:05:10;101039.56;;;-1.19;60.04
60061;BME280;45933;51.336;12.612;2023-01-29T04:07:39;101047.00;;;-1.24;61.13
60061;BME280;45933;51.336;12.612;2023-01-29T04:10:20;101044.88;;;-1.31;61.31
60061;BME280;45933;51.336;12.612;2023-01-29T04:12:57;101047.78;;;-1.25;60.95
60061;BME280;45933;51.336;12.612;2023-01-29T04:15:26;101047.72;;;-1.26;61.12
60061;BME280;45933;51.336;12.612;2023-01-29T04:17:54;101042.47;;;-1.28;60.84
60061;BME280;45933;51.336;12.612;2023-01-29T04:20:21;101044.97;;;-1.29;61.02
60061;BME280;45933;51.336;12.612;2023-01-29T04:22:50;101033.13;;;-1.27;60.69
60061;BME280;45933;51.336;12.612;2023-01-29T04:25:19;101032.09;;;-1.31;61.06
60061;BME280;45933;51.336;12.612;2023-01-29T04:28:20;101029.00;;;-1.25;61.14
60061;BME280;45933;51.336;12.612;2023-01-29T04:30:56;101021.88;;;-1.31;60.72
60061;BME280;45933;51.336;12.612;2023-01-29T04:36:36;101008.44;;;-1.27;60.85
60061;BME280;45933;51.336;12.612;2023-01-29T04:39:14;101010.56;;;-1.35;60.96
60061;BME280;45933;51.336;12.612;2023-01-29T04:42:00;101016.28;;;-1.39;61.11
60061;BME280;45933;51.336;12.612;2023-01-29T04:44:39;101010.38;;;-1.38;61.23
60061;BME280;45933;51.336;12.612;2023-01-29T04:50:01;101006.94;;;-1.38;61.50
60061;BME280;45933;51.336;12.612;2023-01-29T04:59:00;100997.84;;;-1.33;61.79
60061;BME280;45933;51.336;12.612;2023-01-29T05:01:04;100984.72;;;-1.24;60.96
60061;BME280;45933;51.336;12.612;2023-01-29T05:03:31;100992.38;;;-1.24;61.34
60061;BME280;45933;51.336;12.612;2023-01-29T05:05:59;100977.91;;;-1.24;61.06
60061;BME280;45933;51.336;12.612;2023-01-29T05:08:27;100970.19;;;-1.40;62.04
60061;BME280;45933;51.336;12.612;2023-01-29T05:10:55;100969.97;;;-1.28;61.95
60061;BME280;45933;51.336;12.612;2023-01-29T05:13:22;100967.09;;;-1.35;61.94
60061;BME280;45933;51.336;12.612;2023-01-29T05:15:55;100970.31;;;-1.22;61.47
60061;BME280;45933;51.336;12.612;2023-01-29T05:18:22;100959.22;;;-1.23;61.64
60061;BME280;45933;51.336;12.612;2023-01-29T05:20:48;100954.72;;;-1.27;61.83
60061;BME280;45933;51.336;12.612;2023-01-29T05:23:18;100946.00;;;-1.30;61.82
60061;BME280;45933;51.336;12.612;2023-01-29T05:25:46;100957.81;;;-1.33;61.85
60061;BME280;45933;51.336;12.612;2023-01-29T05:28:12;100957.78;;;-1.18;61.50
60061;BME280;45933;51.336;12.612;2023-01-29T05:30:49;100961.47;;;-1.13;61.33
60061;BME280;45933;51.336;12.612;2023-01-29T05:33:20;100958.91;;;-1.13;61.33
60061;BME280;45933;51.336;12.612;2023-01-29T05:35:46;100958.22;;;-1.10;61.32
60061;BME280;45933;51.336;12.612;2023-01-29T05:38:13;100960.41;;;-1.16;61.39
60061;BME280;45933;51.336;12.612;2023-01-29T05:40:38;100955.94;;;-1.20;61.15
60061;BME280;45933;51.336;12.612;2023-01-29T05:43:04;100949.97;;;-1.21;61.32
60061;BME280;45933;51.336;12.612;2023-01-29T05:45:30;100960.25;;;-1.19;61.44
60061;BME280;45933;51.336;12.612;2023-01-29T05:47:57;100958.13;;;-1.12;61.58
60061;BME280;45933;51.336;12.612;2023-01-29T05:50:22;100965.03;;;-1.11;61.42
60061;BME280;45933;51.336;12.612;2023-01-29T05:52:48;100956.91;;;-1.18;61.58
60061;BME280;45933;51.336;12.612;2023-01-29T05:55:13;100964.03;;;-1.13;61.41
60061;BME280;45933;51.336;12.612;2023-01-29T05:57:39;100957.97;;;-1.15;61.27
60061;BME280;45933;51.336;12.612;2023-01-29T06:00:06;100959.19;;;-1.08;61.50
60061;BME280;45933;51.336;12.612;2023-01-29T06:02:31;100965.16;;;-1.08;61.23
60061;BME280;45933;51.336;12.612;2023-01-29T06:04:57;100952.81;;;-1.00;60.99
60061;BME280;45933;51.336;12.612;2023-01-29T06:07:22;100964.13;;;-1.11;60.90
60061;BME280;45933;51.336;12.612;2023-01-29T06:09:47;100970.47;;;-1.04;61.24
60061;BME280;45933;51.336;12.612;2023-01-29T06:12:13;100970.38;;;-1.06;61.46
60061;BME280;45933;51.336;12.612;2023-01-29T06:14:38;100975.84;;;-1.00;60.78
60061;BME280;45933;51.336;12.612;2023-01-29T06:17:03;100979.03;;;-1.04;61.21
60061;BME280;45933;51.336;12.612;2023-01-29T06:19:29;100975.66;;;-1.03;61.05
60061;BME280;45933;51.336;12.612;2023-01-29T06:21:54;100982.88;;;-0.96;61.28
60061;BME280;45933;51.336;12.612;2023-01-29T06:24:20;100978.31;;;-1.01;61.31
60061;BME280;45933;51.336;12.612;2023-01-29T06:26:45;100990.41;;;-0.99;61.08
60061;BME280;45933;51.336;12.612;2023-01-29T06:29:10;100987.72;;;-1.00;60.84
60061;BME280;45933;51.336;12.612;2023-01-29T06:31:35;100981.19;;;-0.95;60.83
60061;BME280;45933;51.336;12.612;2023-01-29T06:34:01;100991.34;;;-0.97;60.78
60061;BME280;45933;51.336;12.612;2023-01-29T06:36:26;101004.06;;;-0.98;61.14
60061;BME280;45933;51.336;12.612;2023-01-29T06:38:52;101000.38;;;-1.03;61.42
60061;BME280;45933;51.336;12.612;2023-01-29T06:41:18;101004.94;;;-0.98;61.11
60061;BME280;45933;51.336;12.612;2023-01-29T06:43:44;101015.25;;;-0.96;60.93
60061;BME280;45933;51.336;12.612;2023-01-29T06:46:09;101020.38;;;-0.96;60.92
60061;BME280;45933;51.336;12.612;2023-01-29T06:48:35;101029.81;;;-0.95;61.34
60061;BME280;45933;51.336;12.612;2023-01-29T06:51:05;101028.41;;;-0.90;60.75
60061;BME280;45933;51.336;12.612;2023-01-29T06:53:32;101041.13;;;-0.92;61.34
60061;BME280;45933;51.336;12.612;2023-01-29T06:55:58;101036.81;;;-0.93;61.19
60061;BME280;45933;51.336;12.612;2023-01-29T06:58:23;101047.19;;;-0.90;60.90
60061;BME280;45933;51.336;12.612;2023-01-29T07:00:49;101037.94;;;-0.88;61.00
60061;BME280;45933;51.336;12.612;2023-01-29T07:03:14;101040.50;;;-0.88;61.02
60061;BME280;45933;51.336;12.612;2023-01-29T07:05:40;101034.31;;;-0.91;61.43
60061;BME280;45933;51.336;12.612;2023-01-29T07:08:05;101042.75;;;-1.09;61.47
60061;BME280;45933;51.336;12.612;2023-01-29T07:10:30;101036.94;;;-0.90;61.11
60061;BME280;45933;51.336;12.612;2023-01-29T07:12:58;101044.22;;;-0.97;61.53
60061;BME280;45933;51.336;12.612;2023-01-29T07:15:23;101049.16;;;-1.00;61.23
60061;BME280;45933;51.336;12.612;2023-01-29T07:17:59;101060.53;;;-0.95;61.66
60061;BME280;45933;51.336;12.612;2023-01-29T07:20:27;101060.97;;;-0.88;61.17
60061;BME280;45933;51.336;12.612;2023-01-29T07:22:57;101069.59;;;-0.86;60.88
60061;BME280;45933;51.336;12.612;2023-01-29T07:25:22;101047.31;;;-0.88;61.11
60061;BME280;45933;51.336;12.612;2023-01-29T07:27:48;101043.94;;;-0.87;60.89
60061;BME280;45933;51.336;12.612;2023-01-29T07:30:14;101046.75;;;-0.83;61.31
60061;BME280;45933;51.336;12.612;2023-01-29T07:32:40;101065.22;;;-0.88;61.19
60061;BME280;45933;51.336;12.612;2023-01-29T07:35:06;101060.97;;;-0.88;61.35
60061;BME280;45933;51.336;12.612;2023-01-29T07:37:31;101058.81;;;-0.80;60.94
60061;BME280;45933;51.336;12.612;2023-01-29T07:39:56;101048.69;;;-0.78;61.20
60061;BME280;45933;51.336;12.612;2023-01-29T07:42:25;101048.84;;;-0.75;60.82
60061;BME280;45933;51.336;12.612;2023-01-29T07:44:51;101049.13;;;-0.86;61.07
60061;BME280;45933;51.336;12.612;2023-01-29T07:47:16;101054.69;;;-0.78;61.23
60061;BME280;45933;51.336;12.612;2023-01-29T07:49:41;101049.03;;;-0.72;61.53
60061;BME280;45933;51.336;12.612;2023-01-29T07:52:07;101039.47;;;-0.75;61.52
60061;BME280;45933;51.336;12.612;2023-01-29T07:54:32;101038.16;;;-0.68;60.76
60061;BME280;45933;51.336;12.612;2023-01-29T07:56:58;101027.66;;;-0.73;61.09
60061;BME280;45933;51.336;12.612;2023-01-29T07:59:23;101014.06;;;-0.72;61.17
60061;BME280;45933;51.336;12.612;2023-01-29T08:01:49;101019.50;;;-0.66;60.98
60061;BME280;45933;51.336;12.612;2023-01-29T08:04:14;101012.16;;;-0.60;61.39
60061;BME280;45933;51.336;12.612;2023-01-29T08:06:39;101011.19;;;-0.62;61.23
60061;BME280;45933;51.336;12.612;2023-01-29T08:09:05;101009.44;;;-0.63;61.69
60061;BME280;45933;51.336;12.612;2023-01-29T08:11:31;100993.53;;;-0.57;61.36
60061;BME280;45933;51.336;12.612;2023-01-29T08:13:57;100975.03;;;-0.51;61.01
60061;BME280;45933;51.336;12.612;2023-01-29T08:16:25;100979.34;;;-0.50;61.43
60061;BME280;45933;51.336;12.612;2023-01-29T08:18:50;100985.28;;;-0.51;61.52
60061;BME280;45933;51.336;12.612;2023-01-29T08:21:15;100984.31;;;-0.54;61.10
60061;BME280;45933;51.336;12.612;2023-01-29T08:23:41;100982.25;;;-0.44;60.60
60061;BME280;45933;51.336;12.612;2023-01-29T08:26:12;100976.31;;;-0.43;61.00
60061;BME280;45933;51.336;12.612;2023-01-29T08:28:37;100987.59;;;-0.40;60.83
60061;BME280;45933;51.336;12.612;2023-01-29T08:31:03;100988.66;;;-0.36;61.22
60061;BME280;45933;51.336;12.612;2023-01-29T08:33:29;100981.75;;;-0.37;61.12
60061;BME280;45933;51.336;12.612;2023-01-29T08:35:54;100994.09;;;-0.46;61.31
60061;BME280;45933;51.336;12.612;2023-01-29T08:38:19;101005.72;;;-0.37;61.73
60061;BME280;45933;51.336;12.612;2023-01-29T08:40:45;101015.47;;;-0.46;61.94
60061;BME280;45933;51.336;12.612;2023-01-29T08:43:12;101022.03;;;-0.35;61.27
60061;BME280;45933;51.336;12.612;2023-01-29T08:45:40;101007.47;;;-0.36;61.73
60061;BME280;45933;51.336;12.612;2023-01-29T08:48:07;100993.22;;;-0.31;61.40
60061;BME280;45933;51.336;12.612;2023-01-29T08:50:33;100984.88;;;-0.27;61.26
60061;BME280;45933;51.336;12.612;2023-01-29T08:53:02;100988.56;;;-0.21;61.13
60061;BME280;45933;51.336;12.612;2023-01-29T08:55:28;101008.91;;;-0.24;61.72
60061;BME280;45933;51.336;12.612;2023-01-29T08:57:54;101013.53;;;-0.17;61.13
60061;BME280;45933;51.336;12.612;2023-01-29T09:00:27;101017.56;;;-0.22;61.57
60061;BME280;45933;51.336;12.612;2023-01-29T09:02:52;101019.66;;;-0.15;61.18
60061;BME280;45933;51.336;12.612;2023-01-29T09:05:18;101015.53;;;-0.12;61.42
60061;BME280;45933;51.336;12.612;2023-01-29T09:07:43;100993.84;;;-0.02;61.30
60061;BME280;45933;51.336;12.612;2023-01-29T09:10:09;100992.91;;;-0.04;61.12
60061;BME280;45933;51.336;12.612;2023-01-29T09:12:35;100997.78;;;-0.09;61.18
60061;BME280;45933;51.336;12.612;2023-01-29T09:15:01;100999.78;;;-0.03;61.59
60061;BME280;45933;51.336;12.612;2023-01-29T09:17:26;100994.47;;;-0.06;61.65
60061;BME280;45933;51.336;12.612;2023-01-29T09:19:51;100992.72;;;-0.07;61.77
60061;BME280;45933;51.336;12.612;2023-01-29T09:22:20;100984.69;;;0.03;61.85
60061;BME280;45933;51.336;12.612;2023-01-29T09:24:48;100972.84;;;-0.11;61.90
60061;BME280;45933;51.336;12.612;2023-01-29T09:27:13;100965.34;;;-0.08;62.38
60061;BME280;45933;51.336;12.612;2023-01-29T09:29:39;100960.84;;;-0.12;62.40
60061;BME280;45933;51.336;12.612;2023-01-29T09:32:04;100956.78;;;-0.09;61.79
60061;BME280;45933;51.336;12.612;2023-01-29T09:34:30;100956.78;;;-0.09;61.84
60061;BME280;45933;51.336;12.612;2023-01-29T09:36:55;100963.28;;;-0.15;61.88
60061;BME280;45933;51.336;12.612;2023-01-29T09:39:24;100962.13;;;-0.04;62.07
60061;BME280;45933;51.336;12.612;2023-01-29T09:44:49;100955.16;;;-0.07;62.19
60061;BME280;45933;51.336;12.612;2023-01-29T09:47:17;100960.22;;;-0.08;62.56
60061;BME280;45933;51.336;12.612;2023-01-29T09:50:16;100967.00;;;0.08;62.07
60061;BME280;45933;51.336;12.612;2023-01-29T09:52:49;100976.19;;;0.04;61.97
60061;BME280;45933;51.336;12.612;2023-01-29T09:55:38;100980.53;;;0.05;61.96
60061;BME280;45933;51.336;12.612;2023-01-29T10:00:56;100977.56;;;0.14;61.87
60061;BME280;45933;51.336;12.612;2023-01-29T10:03:41;100959.38;;;0.09;62.31
60061;BME280;45933;51.336;12.612;2023-01-29T10:17:39;100939.50;;;0.21;61.75
60061;BME280;45933;51.336;12.612;2023-01-29T10:20:18;100941.16;;;0.21;61.95
60061;BME280;45933;51.336;12.612;2023-01-29T10:25:22;100921.09;;;0.30;62.13
60061;BME280;45933;51.336;12.612;2023-01-29T10:27:51;100921.38;;;0.36;62.16
60061;BME280;45933;51.336;12.612;2023-01-29T10:30:37;100922.50;;;0.41;62.24
60061;BME280;45933;51.336;12.612;2023-01-29T10:33:05;100925.81;;;0.39;62.11
60061;BME280;45933;51.336;12.612;2023-01-29T10:35:48;100921.19;;;0.49;62.16
60061;BME280;45933;51.336;12.612;2023-01-29T10:38:43;100914.44;;;0.51;61.81
60061;BME280;45933;51.336;12.612;2023-01-29T10:43:49;100901.47;;;0.66;61.26
60061;BME280;45933;51.336;12.612;2023-01-29T10:46:38;100886.81;;;0.64;61.33
60061;BME280;45933;51.336;12.612;2023-01-29T10:49:47;100889.78;;;0.73;61.21
60061;BME280;45933;51.336;12.612;2023-01-29T10:55:13;100887.59;;;0.81;61.41
60061;BME280;45933;51.336;12.612;2023-01-29T10:58:29;100889.78;;;0.73;61.02
60061;BME280;45933;51.336;12.612;2023-01-29T11:00:39;100880.63;;;0.78;61.17
60061;BME280;45933;51.336;12.612;2023-01-29T11:03:38;100877.88;;;0.93;61.24
60061;BME280;45933;51.336;12.612;2023-01-29T11:11:14;100871.34;;;0.99;61.24
60061;BME280;45933;51.336;12.612;2023-01-29T11:13:54;100861.81;;;0.97;60.36
60061;BME280;45933;51.336;12.612;2023-01-29T11:16:22;100855.94;;;0.99;60.57
60061;BME280;45933;51.336;12.612;2023-01-29T11:18:58;100853.78;;;1.09;60.94
60061;BME280;45933;51.336;12.612;2023-01-29T11:21:25;100848.53;;;1.06;60.71
60061;BME280;45933;51.336;12.612;2023-01-29T11:24:11;100847.16;;;1.14;60.66
60061;BME280;45933;51.336;12.612;2023-01-29T11:26:41;100840.22;;;1.11;60.48
60061;BME280;45933;51.336;12.612;2023-01-29T11:29:31;100835.41;;;1.19;60.28
60061;BME280;45933;51.336;12.612;2023-01-29T11:31:59;100832.16;;;1.23;60.35
60061;BME280;45933;51.336;12.612;2023-01-29T11:34:25;100824.78;;;1.30;60.45
60061;BME280;45933;51.336;12.612;2023-01-29T11:37:00;100831.50;;;1.27;60.24
60061;BME280;45933;51.336;12.612;2023-01-29T11:39:27;100814.25;;;1.24;59.86
60061;BME280;45933;51.336;12.612;2023-01-29T11:42:02;100809.94;;;1.23;59.71
60061;BME280;45933;51.336;12.612;2023-01-29T11:46:55;100800.53;;;1.43;60.16
60061;BME280;45933;51.336;12.612;2023-01-29T11:49:26;100796.44;;;1.48;59.43
60061;BME280;45933;51.336;12.612;2023-01-29T11:51:54;100808.59;;;1.52;59.26
60061;BME280;45933;51.336;12.612;2023-01-29T11:54:25;100811.97;;;1.51;58.75
60061;BME280;45933;51.336;12.612;2023-01-29T11:56:52;100804.03;;;1.66;58.95
60061;BME280;45933;51.336;12.612;2023-01-29T11:59:38;100802.59;;;1.73;58.81
60061;BME280;45933;51.336;12.612;2023-01-29T12:02:19;100783.97;;;1.78;58.35
60061;BME280;45933;51.336;12.612;2023-01-29T12:04:47;100786.75;;;1.83;58.14
60061;BME280;45933;51.336;12.612;2023-01-29T12:07:15;100781.66;;;1.84;58.22
60061;BME280;45933;51.336;12.612;2023-01-29T12:09:48;100784.41;;;1.89;58.04
60061;BME280;45933;51.336;12.612;2023-01-29T12:12:27;100769.53;;;2.03;57.98
60061;BME280;45933;51.336;12.612;2023-01-29T12:15:09;100766.41;;;1.89;57.55
60061;BME280;45933;51.336;12.612;2023-01-29T12:17:39;100764.91;;;1.94;57.48
60061;BME280;45933;51.336;12.612;2023-01-29T12:20:22;100747.28;;;2.03;57.84
60061;BME280;45933;51.336;12.612;2023-01-29T12:28:03;100737.31;;;2.11;57.37
60061;BME280;45933;51.336;12.612;2023-01-29T12:30:36;100741.69;;;2.14;57.52
60061;BME280;45933;51.336;12.612;2023-01-29T12:35:45;100730.63;;;2.16;56.73
60061;BME280;45933;51.336;12.612;2023-01-29T12:38:20;100720.75;;;2.27;57.23
60061;BME280;45933;51.336;12.612;2023-01-29T12:40:50;100718.94;;;2.24;57.14
60061;BME280;45933;51.336;12.612;2023-01-29T12:43:34;100720.28;;;2.15;56.71
60061;BME280;45933;51.336;12.612;2023-01-29T12:46:01;100716.19;;;2.20;56.77
60061;BME280;45933;51.336;12.612;2023-01-29T12:48:33;100716.09;;;2.17;57.11
60061;BME280;45933;51.336;12.612;2023-01-29T12:51:18;100712.00;;;2.22;56.72
60061;BME280;45933;51.336;12.612;2023-01-29T12:53:56;100714.78;;;2.28;57.32
60061;BME280;45933;51.336;12.612;2023-01-29T12:56:36;100720.88;;;2.30;57.33
60061;BME280;45933;51.336;12.612;2023-01-29T12:59:35;100716.16;;;2.42;57.30
60061;BME280;45933;51.336;12.612;2023-01-29T13:02:31;100720.56;;;2.45;56.75
60061;BME280;45933;51.336;12.612;2023-01-29T13:07:52;100715.78;;;2.54;56.48
60061;BME280;45933;51.336;12.612;2023-01-29T13:10:24;100711.50;;;2.54;56.66
60061;BME280;45933;51.336;12.612;2023-01-29T13:12:57;100706.44;;;2.57;56.61
60061;BME280;45933;51.336;12.612;2023-01-29T13:15:38;100695.41;;;2.60;56.45
60061;BME280;45933;51.336;12.612;2023-01-29T13:18:19;100690.28;;;2.61;56.35
60061;BME280;45933;51.336;12.612;2023-01-29T13:20:48;100690.81;;;2.53;56.31
60061;BME280;45933;51.336;12.612;2023-01-29T13:23:20;100682.84;;;2.45;56.35
60061;BME280;45933;51.336;12.612;2023-01-29T13:25:49;100673.63;;;2.52;56.61
60061;BME280;45933;51.336;12.612;2023-01-29T13:28:20;100672.72;;;2.50;56.26
60061;BME280;45933;51.336;12.612;2023-01-29T13:31:10;100676.28;;;2.53;56.40
60061;BME280;45933;51.336;12.612;2023-01-29T13:33:36;100665.88;;;2.50;56.86
60061;BME280;45933;51.336;12.612;2023-01-29T13:36:03;100661.34;;;2.43;56.52
60061;BME280;45933;51.336;12.612;2023-01-29T13:38:30;100657.97;;;2.46;56.84
60061;BME280;45933;51.336;12.612;2023-01-29T13:41:02;100653.75;;;2.48;56.81
60061;BME280;45933;51.336;12.612;2023-01-29T13:43:34;100657.94;;;2.44;57.11
60061;BME280;45933;51.336;12.612;2023-01-29T13:46:08;100663.13;;;2.46;57.07
60061;BME280;45933;51.336;12.612;2023-01-29T13:48:40;100654.53;;;2.45;57.05
60061;BME280;45933;51.336;12.612;2023-01-29T13:51:10;100657.88;;;2.43;56.92
60061;BME280;45933;51.336;12.612;2023-01-29T13:53:42;100657.81;;;2.41;57.04
60061;BME280;45933;51.336;12.612;2023-01-29T13:59:02;100652.41;;;2.33;56.39
60061;BME280;45933;51.336;12.612;2023-01-29T14:06:45;100663.63;;;2.35;57.03
60061;BME280;45933;51.336;12.612;2023-01-29T14:09:31;100660.66;;;2.25;56.60
60061;BME280;45933;51.336;12.612;2023-01-29T14:11:59;100667.06;;;2.36;56.95
60061;BME280;45933;51.336;12.612;2023-01-29T14:17:13;100679.03;;;2.35;56.58
60061;BME280;45933;51.336;12.612;2023-01-29T14:20:15;100685.78;;;2.32;56.54
60061;BME280;45933;51.336;12.612;2023-01-29T14:22:31;100691.91;;;2.35;56.52
60061;BME280;45933;51.336;12.612;2023-01-29T14:25:02;100688.34;;;2.32;56.90
60061;BME280;45933;51.336;12.612;2023-01-29T14:27:30;100672.47;;;2.20;56.67
60061;BME280;45933;51.336;12.612;2023-01-29T14:30:01;100671.97;;;2.30;57.19
60061;BME280;45933;51.336;12.612;2023-01-29T14:32:27;100669.00;;;2.19;57.00
60061;BME280;45933;51.336;12.612;2023-01-29T14:35:01;100675.22;;;2.24;56.92
60061;BME280;45933;51.336;12.612;2023-01-29T14:37:34;100670.84;;;2.22;56.74